Terminal Aerodrome Forecast
Issued by NWS Sterling, VA

Current Version | Previous Version | Text Only | Print | Product List | Glossary Off
Versions: 1 2 3 4 5 6 7 8 9 10 11 12 13 14 15 16 17 18 19 20 21 22 23

000
FTUS41 KLWX 151700
TAFDCA
TAF
KDCA 151740Z 1518/1618 27008G18KT P6SM -RA BKN018 BKN025 OVC040
     FM152100 34014KT 3SM -RA OVC050
     FM160000 33019G30KT P6SM OVC025
     FM160100 33020G31KT P6SM SCT030 OVC050
     FM160400 33020G29KT P6SM FEW040 SCT250
     FM161000 33014KT P6SM SKC
     FM161700 01011KT P6SM SKC=

USA.gov is the U.S. government's official web portal to all federal, state and local government web resources and services.